Airport ID:KBVU
Update Time (UTC):13/12/2019 07:46
Wind Speed (Knots):3
Wind Direction (Magnetic):300
Temperature (°C):6
Dew Point (°C):2.9
Humidity (%):81.7
Altimeter (inHg):30.23
Density Altitude (Feet):
Visibility (Miles):10
Clouds (Hundreds of feet):CLR
Present Weather:
METAR:METAR KBVU 130745Z AUTO 31003KT 10SM CLR 06/03 A3023 RMK AO2

The data displayed is for advisory purposes only and is not to be used for flight planning or operations.

This page is not automatically refreshed. Reload the page to see current data.